Ramsey, Illinois
Current Conditions -  °F | °C
As of 8:15 PM on Saturday 27 Dec 2014 (Local Time) from KTAZ Reporting Station
Overcast Overcast  
Wind Chill: 25°   Ceiling: 1500
Heat Index: 34°   Visibility: 10mi
Dew Point: 32°   Wind: 13mph
Humidity: 93%   Direction: 330°NNW
Pressure: 30.19"   Gusts: NA
Location:  39.14°N, 89.11°W
Report Text: KTAZ 280215Z AUTO 33011KT 10SM BKN015 OVC021 01/00 A3019 RMK AO2
Loading
Personal Weather Stations






























Interactive Weather Map New forecast layout! Learn more

10-Day Weather Forecast

Advertisements
Track Severe Weather on mobile